Time;durP1;ratioP1;P1;durP2;ratioP2;P2;SDS_P1;SDS_P2;PMS_P1;PMS_P2;Temp;Humidity;BMP_temperature;BMP_pressure;BME280_temperature;BME280_humidity;BME280_pressure;Samples;Min_cycle;Max_cycle;Signal;HPM_P1;HPM_P2
2022/08/02 00:00:46;;;;;;;0.63;0.60;;;20.30;99.90;;;;;;5062373;28;20452;-78
2022/08/02 00:03:11;;;;;;;0.27;0.23;;;20.30;99.90;;;;;;5063201;28;20205;-78
2022/08/02 00:05:37;;;;;;;0.30;0.30;;;20.40;99.90;;;;;;5059711;28;20212;-78
2022/08/02 00:08:02;;;;;;;0.40;0.40;;;20.30;99.90;;;;;;5061427;28;20210;-78
2022/08/02 00:10:28;;;;;;;0.73;0.40;;;20.40;99.90;;;;;;5056198;28;20630;-78
2022/08/02 00:12:54;;;;;;;0.50;0.50;;;20.40;99.90;;;;;;5063836;28;20198;-78
2022/08/02 00:15:19;;;;;;;0.43;0.40;;;20.50;99.90;;;;;;5067708;28;20662;-78
2022/08/02 00:17:45;;;;;;;0.37;0.37;;;20.40;99.90;;;;;;5068731;28;20580;-78
2022/08/02 00:20:11;;;;;;;0.40;0.40;;;20.40;99.90;;;;;;5067206;28;20177;-77
2022/08/02 00:22:37;;;;;;;0.43;0.43;;;20.40;99.90;;;;;;5069554;28;20212;-78
2022/08/02 00:25:03;;;;;;;0.23;0.23;;;20.40;99.90;;;;;;5062859;28;20223;-78
2022/08/02 00:27:29;;;;;;;0.40;0.40;;;20.40;99.90;;;;;;5064393;28;20620;-78
2022/08/02 00:29:54;;;;;;;0.23;0.23;;;20.30;99.90;;;;;;5064866;28;20300;-78
2022/08/02 00:32:23;;;;;;;0.40;0.30;;;20.40;99.90;;;;;;5080602;28;20201;-78
2022/08/02 00:34:49;;;;;;;0.30;0.30;;;20.50;99.90;;;;;;5068977;28;20177;-78
2022/08/02 00:37:15;;;;;;;0.50;0.50;;;20.50;99.90;;;;;;5080230;28;20219;-78
2022/08/02 00:39:44;;;;;;;0.67;0.57;;;20.40;99.90;;;;;;5070080;28;20192;-78
2022/08/02 00:42:12;;;;;;;0.30;0.30;;;20.20;99.90;;;;;;5081052;28;20249;-78
2022/08/02 00:44:37;;;;;;;1.20;0.70;;;20.20;99.90;;;;;;5064095;28;20177;-78
2022/08/02 00:47:03;;;;;;;0.80;0.47;;;20.20;99.90;;;;;;5069022;28;20200;-78
2022/08/02 00:49:29;;;;;;;0.77;0.77;;;20.10;99.90;;;;;;5088268;28;20280;-78
2022/08/02 00:51:54;;;;;;;0.40;0.40;;;20.00;99.90;;;;;;5064894;28;20261;-78
2022/08/02 00:54:20;;;;;;;0.50;0.50;;;20.00;99.90;;;;;;5067099;28;20185;-78
2022/08/02 00:56:45;;;;;;;1.40;0.63;;;20.00;99.90;;;;;;5078785;28;20677;-78
2022/08/02 00:59:11;;;;;;;0.70;0.70;;;19.90;99.90;;;;;;5061574;28;20586;-78
2022/08/02 01:01:40;;;;;;;0.40;0.40;;;19.90;99.90;;;;;;5063613;28;20217;-78
2022/08/02 01:04:12;;;;;;;0.30;0.30;;;19.90;99.90;;;;;;5061875;28;20218;-78
2022/08/02 01:06:40;;;;;;;0.30;0.30;;;19.80;99.90;;;;;;5060276;28;20212;-77
2022/08/02 01:09:07;;;;;;;0.50;0.50;;;19.80;99.90;;;;;;5067713;28;20192;-78
2022/08/02 01:11:34;;;;;;;0.50;0.50;;;19.80;99.90;;;;;;5067901;28;20213;-77
2022/08/02 01:14:12;;;;;;;0.50;0.50;;;19.60;99.90;;;;;;5068288;28;20199;-78
2022/08/02 01:16:49;;;;;;;0.40;0.40;;;19.50;99.90;;;;;;5065842;28;20196;-77
2022/08/02 01:19:44;;;;;;;0.60;0.60;;;19.30;99.90;;;;;;5071852;28;20219;-79
2022/08/02 01:22:34;;;;;;;0.50;0.50;;;19.20;99.90;;;;;;5061788;28;20212;-79
2022/08/02 01:25:18;;;;;;;1.20;0.40;;;19.20;99.90;;;;;;5065177;28;20248;-79
2022/08/02 01:28:18;;;;;;;2.30;2.10;;;19.20;99.90;;;;;;5062990;28;20273;-79
2022/08/02 01:30:46;;;;;;;0.40;0.40;;;19.20;99.90;;;;;;5070331;28;20204;-79
2022/08/02 01:33:17;;;;;;;0.73;0.53;;;19.10;99.90;;;;;;5073738;28;20201;-78
2022/08/02 01:35:46;;;;;;;0.37;0.37;;;19.20;99.90;;;;;;5070683;28;20686;-79
2022/08/02 01:38:26;;;;;;;0.30;0.30;;;19.20;99.90;;;;;;5071966;28;20270;-79
2022/08/02 01:40:53;;;;;;;0.30;0.30;;;19.30;99.90;;;;;;5071155;28;20842;-79
2022/08/02 01:43:21;;;;;;;0.57;0.20;;;19.40;99.90;;;;;;5069829;28;20177;-79
2022/08/02 01:45:47;;;;;;;0.20;0.20;;;19.30;99.90;;;;;;5071721;28;20296;-78
2022/08/02 01:48:15;;;;;;;0.40;0.40;;;19.40;99.90;;;;;;5064650;28;20316;-78
2022/08/02 01:50:42;;;;;;;0.67;0.47;;;19.30;99.90;;;;;;5056814;28;20177;-78
2022/08/02 01:53:10;;;;;;;1.07;1.07;;;19.30;99.90;;;;;;5061287;28;20258;-79
2022/08/02 01:55:45;;;;;;;0.30;0.30;;;19.20;99.90;;;;;;5071154;28;20183;-79
2022/08/02 01:58:13;;;;;;;2.53;0.60;;;19.20;99.90;;;;;;5067673;28;20180;-79
2022/08/02 02:00:40;;;;;;;0.30;0.30;;;19.20;99.90;;;;;;5061346;28;20182;-79
2022/08/02 02:03:12;;;;;;;0.73;0.37;;;19.20;99.90;;;;;;5069252;28;20753;-79
2022/08/02 02:05:39;;;;;;;0.80;0.80;;;19.10;99.90;;;;;;5063867;28;20198;-79
2022/08/02 02:08:05;;;;;;;0.43;0.43;;;19.20;99.90;;;;;;5062330;28;20181;-78
2022/08/02 02:10:34;;;;;;;0.37;0.37;;;19.20;99.90;;;;;;5088203;28;20603;-79
2022/08/02 02:13:04;;;;;;;0.33;0.33;;;19.30;99.90;;;;;;5070529;28;20229;-79
2022/08/02 02:15:31;;;;;;;0.47;0.47;;;19.40;99.90;;;;;;5065199;28;20202;-79
2022/08/02 02:17:58;;;;;;;0.30;0.30;;;19.50;99.90;;;;;;5065051;28;20210;-79
2022/08/02 02:20:24;;;;;;;0.30;0.30;;;19.50;99.90;;;;;;5083120;28;20181;-79
2022/08/02 02:22:50;;;;;;;0.37;0.30;;;19.60;99.90;;;;;;5063771;28;20235;-79
2022/08/02 02:25:19;;;;;;;0.40;0.40;;;19.40;99.90;;;;;;5063516;28;20182;-79
2022/08/02 02:27:54;;;;;;;0.40;0.40;;;19.40;99.90;;;;;;5070705;28;20172;-79
2022/08/02 02:30:22;;;;;;;0.30;0.30;;;19.30;99.90;;;;;;5061472;28;20186;-79
2022/08/02 02:32:51;;;;;;;0.50;0.50;;;19.10;99.90;;;;;;5066266;28;20216;-79
2022/08/02 02:35:18;;;;;;;0.57;0.40;;;19.00;99.90;;;;;;5064788;28;20204;-79
2022/08/02 02:37:47;;;;;;;0.47;0.47;;;18.80;99.90;;;;;;5071864;28;20189;-79
2022/08/02 02:40:14;;;;;;;0.23;0.23;;;18.70;99.90;;;;;;5067955;28;20188;-79
2022/08/02 02:42:42;;;;;;;0.50;0.50;;;18.60;99.90;;;;;;5066252;28;20205;-79
2022/08/02 02:45:09;;;;;;;0.30;0.30;;;18.60;99.90;;;;;;5066600;28;20646;-79
2022/08/02 02:47:36;;;;;;;0.60;0.50;;;18.70;99.90;;;;;;5067331;28;20188;-79
2022/08/02 02:50:02;;;;;;;0.30;0.30;;;18.70;99.90;;;;;;5054538;28;20597;-80
2022/08/02 02:52:28;;;;;;;0.27;0.27;;;18.90;99.90;;;;;;5061581;28;20206;-78
2022/08/02 02:54:55;;;;;;;0.30;0.30;;;19.00;99.90;;;;;;5071432;28;20211;-79
2022/08/02 02:57:21;;;;;;;0.50;0.50;;;19.00;99.90;;;;;;5058216;28;20186;-78
2022/08/02 02:59:47;;;;;;;0.50;0.50;;;19.00;99.90;;;;;;5066905;28;20192;-79
2022/08/02 03:02:13;;;;;;;0.40;0.30;;;19.10;99.90;;;;;;5066145;28;20249;-79
2022/08/02 03:04:41;;;;;;;0.30;0.30;;;19.10;99.90;;;;;;5068323;28;20170;-79
2022/08/02 03:07:08;;;;;;;0.73;0.53;;;19.20;99.90;;;;;;5063302;28;20267;-79
2022/08/02 03:09:33;;;;;;;0.50;0.50;;;19.30;99.90;;;;;;5066726;28;20181;-78
2022/08/02 03:11:59;;;;;;;0.67;0.53;;;19.30;99.90;;;;;;5063097;28;20674;-79
2022/08/02 03:14:25;;;;;;;0.53;0.30;;;19.40;99.90;;;;;;5062834;28;20832;-79
2022/08/02 03:16:53;;;;;;;0.73;0.73;;;19.30;99.90;;;;;;5063694;28;20206;-79
2022/08/02 03:19:20;;;;;;;0.80;0.60;;;19.20;99.90;;;;;;5068985;28;20230;-78
2022/08/02 03:21:48;;;;;;;1.30;0.37;;;18.90;99.90;;;;;;5069774;28;20296;-79
2022/08/02 03:24:13;;;;;;;0.53;0.40;;;18.70;99.90;;;;;;5069979;28;20190;-78
2022/08/02 03:26:40;;;;;;;0.60;0.60;;;18.60;99.90;;;;;;5058985;28;20201;-79
2022/08/02 03:29:06;;;;;;;0.50;0.50;;;18.50;99.90;;;;;;5073772;28;20185;-79
2022/08/02 03:31:32;;;;;;;0.60;0.60;;;18.50;99.90;;;;;;5056977;28;20292;-79
2022/08/02 03:33:59;;;;;;;0.30;0.30;;;18.70;99.90;;;;;;5086151;28;20259;-79
2022/08/02 03:36:29;;;;;;;0.40;0.40;;;18.80;99.90;;;;;;5070953;28;20186;-79
2022/08/02 03:38:55;;;;;;;0.50;0.50;;;19.00;99.90;;;;;;5078585;28;20719;-79
2022/08/02 03:41:22;;;;;;;0.80;0.80;;;19.10;99.90;;;;;;5061074;28;20291;-79
2022/08/02 03:43:49;;;;;;;0.50;0.50;;;19.00;99.90;;;;;;5063236;28;20661;-79
2022/08/02 03:46:18;;;;;;;0.63;0.40;;;19.10;99.90;;;;;;5063074;28;20202;-79
2022/08/02 03:48:45;;;;;;;0.40;0.40;;;19.10;99.90;;;;;;5064139;28;20193;-79
2022/08/02 03:51:11;;;;;;;0.30;0.30;;;19.10;99.90;;;;;;5091042;28;20232;-79
2022/08/02 03:53:37;;;;;;;0.57;0.57;;;19.00;99.90;;;;;;5068409;28;20655;-79
2022/08/02 03:56:04;;;;;;;0.47;0.47;;;19.00;99.90;;;;;;5070932;28;20274;-79
2022/08/02 03:58:30;;;;;;;0.30;0.30;;;19.00;99.90;;;;;;5088405;28;20197;-78
2022/08/02 04:00:56;;;;;;;0.47;0.47;;;18.70;99.90;;;;;;5066286;28;20194;-79
2022/08/02 04:03:22;;;;;;;0.70;0.70;;;18.50;99.90;;;;;;5072777;28;20567;-79
2022/08/02 04:05:48;;;;;;;0.47;0.47;;;18.40;99.90;;;;;;5068728;28;20201;-79
2022/08/02 04:08:14;;;;;;;0.67;0.67;;;18.60;99.90;;;;;;5066123;28;20250;-79
2022/08/02 04:13:29;;;;;;;0.40;0.40;;;19.00;99.90;;;;;;5074592;28;20262;-79
2022/08/02 04:15:58;;;;;;;0.40;0.37;;;19.20;99.90;;;;;;5070316;28;20188;-79
2022/08/02 04:18:33;;;;;;;0.40;0.40;;;19.40;99.90;;;;;;5074109;28;20674;-79
2022/08/02 04:21:01;;;;;;;0.43;0.40;;;19.40;99.90;;;;;;5069209;28;20181;-79
2022/08/02 04:23:29;;;;;;;0.67;0.67;;;19.50;99.90;;;;;;5064787;28;20260;-79
2022/08/02 04:25:56;;;;;;;0.47;0.47;;;19.50;99.90;;;;;;5063955;28;20206;-79
2022/08/02 04:28:23;;;;;;;0.37;0.37;;;19.50;99.90;;;;;;5059108;28;20235;-79
2022/08/02 04:30:50;;;;;;;0.60;0.50;;;19.40;99.90;;;;;;5090125;28;20271;-79
2022/08/02 04:33:16;;;;;;;0.30;0.30;;;19.50;99.90;;;;;;5070275;28;20197;-79
2022/08/02 04:35:43;;;;;;;0.30;0.30;;;19.50;99.90;;;;;;5067826;28;20205;-79
2022/08/02 04:38:09;;;;;;;0.40;0.40;;;19.50;99.90;;;;;;5057164;28;20186;-79
2022/08/02 04:40:34;;;;;;;0.47;0.47;;;19.30;99.90;;;;;;5069982;28;20186;-79
2022/08/02 04:43:00;;;;;;;0.40;0.40;;;19.30;99.90;;;;;;5067548;28;20219;-79
2022/08/02 04:45:26;;;;;;;0.57;0.57;;;19.50;99.90;;;;;;5086675;28;20258;-79
2022/08/02 04:47:52;;;;;;;0.20;0.20;;;19.70;99.90;;;;;;5067146;28;20249;-79
2022/08/02 04:50:19;;;;;;;0.50;0.50;;;19.80;99.90;;;;;;5072797;28;20200;-79
2022/08/02 04:52:45;;;;;;;0.27;0.27;;;19.90;99.90;;;;;;5068580;28;20201;-79
2022/08/02 04:55:10;;;;;;;0.43;0.43;;;19.70;99.90;;;;;;5086493;28;20244;-79
2022/08/02 04:57:54;;;;;;;0.50;0.50;;;19.60;99.90;;;;;;5067125;28;20263;-79
2022/08/02 05:00:20;;;;;;;0.40;0.40;;;19.50;99.90;;;;;;5060051;28;20207;-79
2022/08/02 05:02:46;;;;;;;0.20;0.20;;;19.30;99.90;;;;;;5058300;28;20205;-78
2022/08/02 05:05:12;;;;;;;0.30;0.30;;;19.20;99.90;;;;;;5071868;28;20177;-79
2022/08/02 05:07:37;;;;;;;0.40;0.40;;;19.20;99.90;;;;;;5085228;28;20178;-79
2022/08/02 05:10:03;;;;;;;0.63;0.50;;;19.10;99.90;;;;;;5091803;28;20214;-79
2022/08/02 05:12:29;;;;;;;0.27;0.27;;;19.30;99.90;;;;;;5073999;28;20200;-79
2022/08/02 05:14:54;;;;;;;0.60;0.57;;;19.50;99.90;;;;;;5074444;28;20872;-79
2022/08/02 05:17:20;;;;;;;0.30;0.30;;;19.60;99.90;;;;;;5067429;28;20258;-79
2022/08/02 05:19:46;;;;;;;0.47;0.30;;;19.60;99.90;;;;;;5065605;28;20667;-79
2022/08/02 05:22:11;;;;;;;0.30;0.30;;;19.70;99.90;;;;;;5073235;28;20622;-79
2022/08/02 05:24:37;;;;;;;0.47;0.47;;;19.80;99.90;;;;;;5070056;28;20186;-79
2022/08/02 05:27:02;;;;;;;0.57;0.57;;;19.90;99.90;;;;;;5068568;28;20284;-78
2022/08/02 05:29:28;;;;;;;0.50;0.50;;;19.90;99.90;;;;;;5067208;28;20209;-79
2022/08/02 05:31:53;;;;;;;0.43;0.43;;;20.20;99.90;;;;;;5068706;28;20254;-79
2022/08/02 05:34:19;;;;;;;0.40;0.40;;;20.40;99.90;;;;;;5070859;28;20177;-79
2022/08/02 05:36:45;;;;;;;0.63;0.63;;;20.60;99.90;;;;;;5062373;28;20247;-79
2022/08/02 05:39:10;;;;;;;0.73;0.50;;;20.80;99.90;;;;;;5068569;28;20189;-79
2022/08/02 05:41:36;;;;;;;0.40;0.40;;;21.00;99.90;;;;;;5065245;28;20209;-79
2022/08/02 05:44:02;;;;;;;0.40;0.40;;;21.20;99.90;;;;;;5062141;28;20181;-81
2022/08/02 05:46:27;;;;;;;0.57;0.57;;;21.40;99.90;;;;;;5070148;28;20208;-79
2022/08/02 05:48:53;;;;;;;0.70;0.70;;;21.60;99.90;;;;;;5066438;28;21148;-79
2022/08/02 05:51:37;;;;;;;0.40;0.40;;;21.80;99.90;;;;;;5069861;28;20193;-79
2022/08/02 05:54:18;;;;;;;0.40;0.40;;;21.80;99.90;;;;;;5063031;28;20186;-79
2022/08/02 05:56:59;;;;;;;0.73;0.70;;;22.00;99.90;;;;;;5084734;28;20284;-79
2022/08/02 05:59:32;;;;;;;0.30;0.30;;;22.10;99.90;;;;;;5065897;28;20234;-82
2022/08/02 06:02:02;;;;;;;0.88;0.88;;;22.30;99.90;;;;;;5081677;28;20434;-78
2022/08/02 06:05:00;;;;;;;0.67;0.67;;;22.40;99.90;;;;;;5080968;28;20185;-79
2022/08/02 06:07:28;;;;;;;0.57;0.57;;;22.50;99.90;;;;;;5066147;28;20212;-79
2022/08/02 06:09:53;;;;;;;0.40;0.40;;;22.50;99.90;;;;;;5064062;28;20196;-79
2022/08/02 06:12:20;;;;;;;1.00;0.60;;;22.40;99.90;;;;;;5068697;28;20237;-79
2022/08/02 06:14:46;;;;;;;0.40;0.40;;;22.30;99.90;;;;;;5082907;28;20837;-79
2022/08/02 06:17:12;;;;;;;0.57;0.57;;;22.20;99.90;;;;;;5061041;28;20186;-79
2022/08/02 06:19:40;;;;;;;1.70;0.77;;;22.30;99.90;;;;;;5063632;28;20600;-79
2022/08/02 06:22:25;;;;;;;0.53;0.53;;;22.30;99.90;;;;;;5067735;28;20205;-79
2022/08/02 06:24:52;;;;;;;0.60;0.60;;;22.20;99.90;;;;;;5072185;28;21077;-79
2022/08/02 06:27:19;;;;;;;0.57;0.57;;;22.00;99.90;;;;;;5067877;28;20616;-78
2022/08/02 06:29:47;;;;;;;0.60;0.60;;;22.00;99.90;;;;;;5068419;28;20188;-79
2022/08/02 06:32:18;;;;;;;0.30;0.30;;;21.90;99.90;;;;;;5070856;28;20274;-79
2022/08/02 06:34:45;;;;;;;2.20;0.50;;;22.10;99.90;;;;;;5085007;28;20978;-84
2022/08/02 06:37:25;;;;;;;1.48;1.30;;;22.20;99.90;;;;;;5070330;28;21067;-79
2022/08/02 06:39:58;;;;;;;0.50;0.50;;;22.30;99.90;;;;;;5076449;28;20577;-79
2022/08/02 06:42:41;;;;;;;0.40;0.40;;;22.50;99.90;;;;;;5063065;28;20239;-79
2022/08/02 06:45:07;;;;;;;0.70;0.70;;;22.70;99.90;;;;;;5067813;28;20268;-79
2022/08/02 06:47:33;;;;;;;0.23;0.23;;;22.90;99.90;;;;;;5064497;28;20292;-80
2022/08/02 06:49:58;;;;;;;0.30;0.30;;;23.00;99.90;;;;;;5065788;28;20674;-79
2022/08/02 06:52:25;;;;;;;0.50;0.50;;;23.30;99.90;;;;;;5064610;28;20201;-79
2022/08/02 06:54:51;;;;;;;0.50;0.50;;;23.40;99.90;;;;;;5068583;28;20211;-80
2022/08/02 06:57:16;;;;;;;0.57;0.57;;;23.50;99.90;;;;;;5068297;28;20184;-80
2022/08/02 06:59:42;;;;;;;0.40;0.40;;;23.70;99.90;;;;;;5064697;28;20217;-80
2022/08/02 07:02:10;;;;;;;0.50;0.43;;;23.70;99.90;;;;;;5087091;28;20204;-81
2022/08/02 07:04:36;;;;;;;0.57;0.57;;;23.80;99.90;;;;;;5067383;28;20203;-79
2022/08/02 07:07:01;;;;;;;0.40;0.40;;;23.90;99.90;;;;;;5082583;28;20733;-78
2022/08/02 07:09:27;;;;;;;0.57;0.57;;;24.00;99.90;;;;;;5061210;28;20244;-79
2022/08/02 07:11:53;;;;;;;0.47;0.47;;;24.10;99.90;;;;;;5064408;28;20229;-79
2022/08/02 07:14:18;;;;;;;0.80;0.53;;;24.20;99.90;;;;;;5065051;28;20204;-79
2022/08/02 07:16:44;;;;;;;0.97;0.50;;;24.30;99.90;;;;;;5069053;28;20224;-79
2022/08/02 07:19:09;;;;;;;1.03;1.03;;;24.20;99.90;;;;;;5061763;28;20212;-79
2022/08/02 07:21:35;;;;;;;0.47;0.47;;;24.40;99.90;;;;;;5065893;28;20217;-79
2022/08/02 07:24:00;;;;;;;0.40;0.40;;;24.60;99.90;;;;;;5068216;28;20205;-79
2022/08/02 07:26:26;;;;;;;0.80;0.80;;;24.70;99.90;;;;;;5066888;28;20619;-79
2022/08/02 07:28:53;;;;;;;0.57;0.57;;;24.80;99.90;;;;;;5074442;28;20358;-79
2022/08/02 07:31:19;;;;;;;1.33;1.23;;;24.90;99.90;;;;;;5064228;28;20201;-79
2022/08/02 07:33:44;;;;;;;0.47;0.47;;;25.20;99.90;;;;;;5067639;28;20177;-79
2022/08/02 07:36:10;;;;;;;0.50;0.50;;;25.40;99.90;;;;;;5075906;28;20184;-79
2022/08/02 07:38:36;;;;;;;0.50;0.50;;;25.50;99.90;;;;;;5058134;28;21995;-79
2022/08/02 07:41:01;;;;;;;0.40;0.40;;;25.70;99.90;;;;;;5058924;28;20189;-79
2022/08/02 07:43:27;;;;;;;0.80;0.80;;;25.60;99.90;;;;;;5057136;28;20197;-80
2022/08/02 07:45:52;;;;;;;0.50;0.50;;;25.80;99.90;;;;;;5068870;28;20210;-80
2022/08/02 07:48:18;;;;;;;1.13;0.80;;;25.70;99.90;;;;;;5067418;28;20269;-79
2022/08/02 07:50:45;;;;;;;1.13;1.00;;;25.80;99.90;;;;;;5060987;28;20192;-79
2022/08/02 07:53:11;;;;;;;1.60;0.83;;;25.70;99.90;;;;;;5070368;28;20213;-79
2022/08/02 07:55:36;;;;;;;0.77;0.60;;;25.70;99.90;;;;;;5061862;28;20195;-79
2022/08/02 07:58:03;;;;;;;0.57;0.50;;;25.60;99.90;;;;;;5066353;28;20550;-79
2022/08/02 08:00:29;;;;;;;0.67;0.67;;;25.90;99.90;;;;;;5061951;28;20181;-80
2022/08/02 08:02:54;;;;;;;0.40;0.40;;;26.10;99.90;;;;;;5068832;28;20205;-79
2022/08/02 08:05:20;;;;;;;1.10;1.00;;;26.10;99.90;;;;;;5065258;28;20793;-79
2022/08/02 08:07:45;;;;;;;0.70;0.70;;;26.20;99.90;;;;;;5069323;28;20181;-79
2022/08/02 08:10:11;;;;;;;0.90;0.90;;;26.30;99.90;;;;;;5069238;28;20318;-79
2022/08/02 08:12:37;;;;;;;0.60;0.60;;;26.40;99.90;;;;;;5067570;28;20208;-79
2022/08/02 08:15:03;;;;;;;0.97;0.60;;;26.50;99.90;;;;;;5064747;28;20192;-79
2022/08/02 08:17:28;;;;;;;0.50;0.50;;;26.60;99.90;;;;;;5063713;28;20277;-79
2022/08/02 08:19:54;;;;;;;2.20;1.70;;;26.70;99.90;;;;;;5068983;28;20213;-79
2022/08/02 08:22:20;;;;;;;0.63;0.50;;;26.90;99.90;;;;;;5059497;28;20213;-80
2022/08/02 08:24:46;;;;;;;0.60;0.60;;;26.90;99.90;;;;;;5065718;28;21013;-80
2022/08/02 08:27:14;;;;;;;0.40;0.40;;;27.00;99.90;;;;;;5065547;28;20205;-79
2022/08/02 08:29:41;;;;;;;0.40;0.40;;;27.10;99.90;;;;;;5059991;28;20174;-80
2022/08/02 08:32:07;;;;;;;0.50;0.50;;;27.00;99.90;;;;;;5069744;28;20300;-80
2022/08/02 08:34:33;;;;;;;0.40;0.40;;;27.20;99.90;;;;;;5070862;28;20287;-79
2022/08/02 08:36:59;;;;;;;0.30;0.30;;;27.20;99.90;;;;;;5072741;28;20181;-80
2022/08/02 08:39:24;;;;;;;0.60;0.60;;;27.30;99.90;;;;;;5073738;28;20185;-80
2022/08/02 08:41:50;;;;;;;0.50;0.50;;;27.30;99.90;;;;;;5081985;28;20205;-80
2022/08/02 08:44:15;;;;;;;0.30;0.30;;;27.40;99.90;;;;;;5076461;28;20181;-80
2022/08/02 08:46:43;;;;;;;0.60;0.60;;;26.90;99.90;;;;;;5068378;28;20275;-80
2022/08/02 08:49:17;;;;;;;0.40;0.40;;;26.60;99.90;;;;;;5062846;28;20265;-79
2022/08/02 08:51:43;;;;;;;0.40;0.30;;;26.70;99.90;;;;;;5073610;28;20274;-80
2022/08/02 08:54:12;;;;;;;0.40;0.40;;;27.30;99.90;;;;;;5070160;28;20173;-80
2022/08/02 08:56:39;;;;;;;0.40;0.40;;;27.60;99.90;;;;;;5071280;28;20239;-79
2022/08/02 08:59:05;;;;;;;1.03;0.70;;;27.70;99.90;;;;;;5075784;28;20268;-79
2022/08/02 09:01:31;;;;;;;1.60;0.63;;;27.90;99.90;;;;;;5075972;28;20208;-79
2022/08/02 09:03:57;;;;;;;0.50;0.50;;;28.20;99.90;;;;;;5078206;28;20697;-80
2022/08/02 09:06:23;;;;;;;0.33;0.33;;;28.10;99.90;;;;;;5082138;28;20205;-80
2022/08/02 09:08:49;;;;;;;1.13;0.70;;;28.10;99.90;;;;;;5068875;28;20181;-80
2022/08/02 09:11:17;;;;;;;1.13;0.43;;;28.40;99.90;;;;;;5078151;28;20256;-79
2022/08/02 09:13:54;;;;;;;0.20;0.20;;;28.60;99.90;;;;;;5082507;28;20193;-80
2022/08/02 09:16:49;;;;;;;0.40;0.40;;;28.90;99.90;;;;;;5074644;28;20185;-80
2022/08/02 09:19:19;;;;;;;0.40;0.40;;;28.80;99.90;;;;;;5064111;28;20229;-80
2022/08/02 09:21:45;;;;;;;0.30;0.30;;;29.00;99.90;;;;;;5073348;28;20205;-80
2022/08/02 09:24:16;;;;;;;8.07;1.92;;;29.10;99.90;;;;;;5079007;28;20251;-80
2022/08/02 09:26:42;;;;;;;0.40;0.38;;;29.20;99.90;;;;;;5080570;28;20672;-80
2022/08/02 09:29:08;;;;;;;0.38;0.38;;;29.40;99.90;;;;;;5076539;28;20212;-80
2022/08/02 09:31:34;;;;;;;0.70;0.50;;;29.50;99.90;;;;;;5077828;28;20291;-80
2022/08/02 09:33:59;;;;;;;0.30;0.30;;;29.50;99.90;;;;;;5097695;28;20189;-80
2022/08/02 09:36:35;;;;;;;0.60;0.60;;;29.40;99.90;;;;;;5089922;28;20559;-79
2022/08/02 09:39:04;;;;;;;0.47;0.47;;;29.60;99.90;;;;;;5076717;28;20204;-79
2022/08/02 09:41:34;;;;;;;0.43;0.43;;;29.60;99.90;;;;;;5081795;28;20296;-79
2022/08/02 09:44:02;;;;;;;0.50;0.50;;;29.70;99.90;;;;;;5071750;28;20257;-79
2022/08/02 09:46:32;;;;;;;0.55;0.30;;;29.60;99.90;;;;;;5067256;28;20193;-80
2022/08/02 09:49:09;;;;;;;0.43;0.43;;;29.70;99.90;;;;;;5072551;28;20191;-80
2022/08/02 09:51:37;;;;;;;0.65;0.50;;;29.60;99.90;;;;;;5074395;28;20613;-80
2022/08/02 09:54:07;;;;;;;0.30;0.30;;;29.60;99.90;;;;;;5066242;28;20189;-79
2022/08/02 09:57:00;;;;;;;0.40;0.40;;;29.80;99.90;;;;;;5067293;28;20613;-79
2022/08/02 09:59:27;;;;;;;0.52;0.40;;;29.70;99.90;;;;;;5064998;28;20223;-80
2022/08/02 10:01:54;;;;;;;0.65;0.38;;;29.80;99.90;;;;;;5081179;28;20220;-80
2022/08/02 10:04:22;;;;;;;0.40;0.40;;;29.80;99.90;;;;;;5083275;28;20185;-79
2022/08/02 10:06:49;;;;;;;0.22;0.22;;;29.60;99.90;;;;;;5071756;28;20234;-80
2022/08/02 10:09:15;;;;;;;0.30;0.28;;;29.60;99.90;;;;;;5079946;28;20565;-80
2022/08/02 10:11:41;;;;;;;0.47;0.47;;;29.20;99.90;;;;;;5086380;28;20209;-79
2022/08/02 10:14:09;;;;;;;0.43;0.43;;;29.40;99.90;;;;;;5075908;28;20243;-80
2022/08/02 10:16:37;;;;;;;0.32;0.32;;;29.60;99.90;;;;;;5070515;28;20181;-79
2022/08/02 10:19:03;;;;;;;0.45;0.45;;;29.60;99.90;;;;;;5070556;28;20188;-80
2022/08/02 10:21:43;;;;;;;0.38;0.38;;;29.70;99.90;;;;;;5069413;28;20693;-80
2022/08/02 10:24:12;;;;;;;0.40;0.40;;;29.60;99.90;;;;;;5070505;28;20221;-80
2022/08/02 10:26:41;;;;;;;0.40;0.40;;;29.80;99.90;;;;;;5092045;28;20204;-80
2022/08/02 10:29:14;;;;;;;0.38;0.38;;;29.00;99.90;;;;;;5072264;28;20192;-80
2022/08/02 10:31:53;;;;;;;0.57;0.40;;;28.80;99.90;;;;;;5084951;28;20193;-80
2022/08/02 10:34:23;;;;;;;0.40;0.40;;;29.30;99.90;;;;;;5060812;28;20177;-80
2022/08/02 10:36:50;;;;;;;0.40;0.40;;;29.20;99.90;;;;;;5074763;28;20180;-80
2022/08/02 10:39:16;;;;;;;0.35;0.35;;;29.60;99.90;;;;;;5067590;28;20654;-80
2022/08/02 10:41:47;;;;;;;0.22;0.22;;;29.70;99.90;;;;;;5069166;28;20243;-80
2022/08/02 10:44:27;;;;;;;0.30;0.30;;;30.00;99.90;;;;;;5064471;28;20208;-80
2022/08/02 10:47:13;;;;;;;0.50;0.50;;;30.30;99.90;;;;;;5069278;28;20201;-80
2022/08/02 10:49:58;;;;;;;0.40;0.40;;;30.20;99.90;;;;;;5076163;28;20185;-80
2022/08/02 10:52:31;;;;;;;0.35;0.35;;;30.10;99.90;;;;;;5069242;28;20201;-80
2022/08/02 10:55:08;;;;;;;0.40;0.40;;;30.10;99.90;;;;;;5070379;28;20658;-79
2022/08/02 10:57:35;;;;;;;0.50;0.50;;;30.10;99.90;;;;;;5065902;28;20263;-80
2022/08/02 11:00:26;;;;;;;0.47;0.47;;;30.40;99.90;;;;;;5071342;28;20181;-81
2022/08/02 11:02:54;;;;;;;0.50;0.50;;;30.70;99.90;;;;;;5066017;28;20217;-80
2022/08/02 11:05:27;;;;;;;0.30;0.30;;;30.60;99.90;;;;;;5072256;28;20199;-80
2022/08/02 11:07:53;;;;;;;0.30;0.30;;;30.70;99.90;;;;;;5069169;28;20178;-81
2022/08/02 11:10:38;;;;;;;0.57;0.57;;;30.70;99.90;;;;;;5068069;28;20627;-80
2022/08/02 11:13:15;;;;;;;0.57;0.50;;;30.90;99.90;;;;;;5081233;28;20201;-80
2022/08/02 11:16:03;;;;;;;0.43;0.43;;;30.70;99.90;;;;;;5070172;28;20188;-80
2022/08/02 11:18:51;;;;;;;0.40;0.40;;;30.90;99.90;;;;;;5066868;28;20230;-80
2022/08/02 11:21:22;;;;;;;0.20;0.20;;;31.10;99.90;;;;;;5071506;28;20227;-80
2022/08/02 11:23:48;;;;;;;0.38;0.38;;;31.10;99.90;;;;;;5074547;28;20247;-80
2022/08/02 11:26:31;;;;;;;0.22;0.22;;;31.00;99.90;;;;;;5072340;28;20237;-80
2022/08/02 11:29:02;;;;;;;0.30;0.30;;;31.20;99.90;;;;;;5073403;28;20181;-80
2022/08/02 11:31:36;;;;;;;0.40;0.40;;;31.50;99.90;;;;;;5065616;28;20213;-80
2022/08/02 11:34:03;;;;;;;0.32;0.32;;;31.60;99.90;;;;;;5066143;28;20169;-80
2022/08/02 11:36:29;;;;;;;0.40;0.40;;;31.40;99.90;;;;;;5067937;28;20189;-80
2022/08/02 11:39:11;;;;;;;0.50;0.50;;;31.40;99.90;;;;;;5081207;28;20250;-80
2022/08/02 11:41:37;;;;;;;0.28;0.28;;;31.20;99.90;;;;;;5066152;28;20768;-80
2022/08/02 11:44:03;;;;;;;0.32;0.32;;;31.60;99.90;;;;;;5068934;28;20209;-79
2022/08/02 11:46:29;;;;;;;0.40;0.40;;;31.70;99.90;;;;;;5064948;28;20670;-80
2022/08/02 11:48:54;;;;;;;0.25;0.25;;;31.80;99.90;;;;;;5070148;28;20530;-80
2022/08/02 11:51:20;;;;;;;0.50;0.50;;;31.90;99.90;;;;;;5072619;28;20201;-80
2022/08/02 11:53:47;;;;;;;0.60;0.60;;;31.90;99.90;;;;;;5072155;28;20208;-80
2022/08/02 11:56:14;;;;;;;0.25;0.25;;;31.90;99.90;;;;;;5072033;28;20173;-80
2022/08/02 11:58:40;;;;;;;0.30;0.30;;;32.10;99.90;;;;;;5086991;28;20185;-80
2022/08/02 12:01:06;;;;;;;0.55;0.55;;;32.40;99.90;;;;;;5073174;28;20586;-80
2022/08/02 12:03:38;;;;;;;0.63;0.63;;;32.00;99.90;;;;;;5070800;28;20193;-80
2022/08/02 12:06:04;;;;;;;0.30;0.30;;;31.80;99.90;;;;;;5068547;28;20595;-80
2022/08/02 12:08:32;;;;;;;0.30;0.30;;;31.80;99.90;;;;;;5062985;28;20184;-80
2022/08/02 12:11:00;;;;;;;0.95;0.90;;;31.90;99.90;;;;;;5072004;28;20177;-80
2022/08/02 12:13:26;;;;;;;0.30;0.30;;;31.80;99.90;;;;;;5074443;28;20196;-80
2022/08/02 12:15:52;;;;;;;0.32;0.32;;;31.80;99.90;;;;;;5077596;28;20193;-80
2022/08/02 12:21:21;;;;;;;0.50;0.50;;;31.60;99.90;;;;;;5071785;28;20188;-80
2022/08/02 12:23:50;;;;;;;0.40;0.40;;;31.50;99.90;;;;;;5070430;28;20990;-80
2022/08/02 12:26:16;;;;;;;0.30;0.30;;;31.50;99.90;;;;;;5072546;28;20690;-79
2022/08/02 12:28:42;;;;;;;1.60;0.57;;;31.20;99.90;;;;;;5064567;28;20280;-79
2022/08/02 12:31:33;;;;;;;0.30;0.30;;;31.00;99.90;;;;;;5074307;28;20324;-80
2022/08/02 12:34:13;;;;;;;0.40;0.40;;;31.40;99.90;;;;;;5071597;28;20284;-79
2022/08/02 12:36:39;;;;;;;0.60;0.60;;;30.40;99.90;;;;;;5079294;28;20176;-80
2022/08/02 12:39:11;;;;;;;0.30;0.30;;;30.20;99.90;;;;;;5068618;28;20247;-79
2022/08/02 12:41:36;;;;;;;1.48;1.40;;;30.30;99.90;;;;;;5078794;28;20208;-80
2022/08/02 12:44:14;;;;;;;0.45;0.45;;;31.00;99.90;;;;;;5077136;28;20177;-80
2022/08/02 12:46:39;;;;;;;0.93;0.70;;;31.00;99.90;;;;;;5064262;28;20194;-80
2022/08/02 12:49:18;;;;;;;1.30;1.20;;;31.20;99.90;;;;;;5070152;28;20254;-79
2022/08/02 12:51:46;;;;;;;0.40;0.32;;;31.20;99.90;;;;;;5075952;28;20201;-80
2022/08/02 12:54:15;;;;;;;0.45;0.45;;;31.40;99.90;;;;;;5074157;28;20219;-80
2022/08/02 12:56:41;;;;;;;0.30;0.30;;;31.50;99.90;;;;;;5073711;28;20253;-80
2022/08/02 12:59:07;;;;;;;0.30;0.30;;;31.50;99.90;;;;;;5074284;28;20696;-80
2022/08/02 13:01:34;;;;;;;0.50;0.50;;;31.40;99.90;;;;;;5073072;28;20205;-80